sensor_id;sensor_type;location;lat;lon;timestamp;P1;durP1;ratioP1;P2;durP2;ratioP2
70337;SDS011;57757;53.198;19.646;2024-03-22T00:02:19;50.50;;;21.00;;
70337;SDS011;57757;53.198;19.646;2024-03-22T00:04:46;51.50;;;22.70;;
70337;SDS011;57757;53.198;19.646;2024-03-22T00:07:13;54.40;;;22.70;;
70337;SDS011;57757;53.198;19.646;2024-03-22T00:09:40;52.70;;;23.00;;
70337;SDS011;57757;53.198;19.646;2024-03-22T00:12:08;50.00;;;21.90;;
70337;SDS011;57757;53.198;19.646;2024-03-22T00:14:35;55.70;;;22.00;;
70337;SDS011;57757;53.198;19.646;2024-03-22T00:17:03;52.80;;;21.30;;
70337;SDS011;57757;53.198;19.646;2024-03-22T00:19:30;57.20;;;23.60;;
70337;SDS011;57757;53.198;19.646;2024-03-22T00:21:57;54.80;;;23.40;;
70337;SDS011;57757;53.198;19.646;2024-03-22T00:24:25;59.50;;;24.90;;
70337;SDS011;57757;53.198;19.646;2024-03-22T00:26:52;61.30;;;25.20;;
70337;SDS011;57757;53.198;19.646;2024-03-22T00:29:19;54.30;;;23.40;;
70337;SDS011;57757;53.198;19.646;2024-03-22T00:31:46;59.20;;;25.50;;
70337;SDS011;57757;53.198;19.646;2024-03-22T00:34:14;62.60;;;27.30;;
70337;SDS011;57757;53.198;19.646;2024-03-22T00:36:41;63.70;;;28.00;;
70337;SDS011;57757;53.198;19.646;2024-03-22T00:39:08;68.10;;;27.90;;
70337;SDS011;57757;53.198;19.646;2024-03-22T00:41:36;65.60;;;26.10;;
70337;SDS011;57757;53.198;19.646;2024-03-22T00:44:03;62.70;;;26.60;;
70337;SDS011;57757;53.198;19.646;2024-03-22T00:46:31;58.20;;;25.00;;
70337;SDS011;57757;53.198;19.646;2024-03-22T00:48:59;63.60;;;26.60;;
70337;SDS011;57757;53.198;19.646;2024-03-22T00:51:26;62.60;;;24.70;;
70337;SDS011;57757;53.198;19.646;2024-03-22T00:53:53;53.70;;;23.80;;
70337;SDS011;57757;53.198;19.646;2024-03-22T00:56:21;53.40;;;22.90;;
70337;SDS011;57757;53.198;19.646;2024-03-22T00:58:48;48.30;;;21.40;;
70337;SDS011;57757;53.198;19.646;2024-03-22T01:01:16;49.60;;;21.50;;
70337;SDS011;57757;53.198;19.646;2024-03-22T01:03:43;54.10;;;23.10;;
70337;SDS011;57757;53.198;19.646;2024-03-22T01:06:10;53.80;;;23.20;;
70337;SDS011;57757;53.198;19.646;2024-03-22T01:08:37;51.50;;;21.80;;
70337;SDS011;57757;53.198;19.646;2024-03-22T01:11:05;58.30;;;23.80;;
70337;SDS011;57757;53.198;19.646;2024-03-22T01:13:32;52.40;;;22.90;;
70337;SDS011;57757;53.198;19.646;2024-03-22T01:15:59;50.30;;;22.20;;
70337;SDS011;57757;53.198;19.646;2024-03-22T01:18:26;51.10;;;21.80;;
70337;SDS011;57757;53.198;19.646;2024-03-22T01:20:53;53.00;;;23.20;;
70337;SDS011;57757;53.198;19.646;2024-03-22T01:23:21;50.00;;;22.30;;
70337;SDS011;57757;53.198;19.646;2024-03-22T01:25:48;50.70;;;22.40;;
70337;SDS011;57757;53.198;19.646;2024-03-22T01:28:15;54.60;;;24.10;;
70337;SDS011;57757;53.198;19.646;2024-03-22T01:30:42;54.80;;;23.40;;
70337;SDS011;57757;53.198;19.646;2024-03-22T01:33:10;55.40;;;24.60;;
70337;SDS011;57757;53.198;19.646;2024-03-22T01:35:37;57.90;;;24.00;;
70337;SDS011;57757;53.198;19.646;2024-03-22T01:38:04;57.20;;;23.90;;
70337;SDS011;57757;53.198;19.646;2024-03-22T01:40:31;59.90;;;30.20;;
70337;SDS011;57757;53.198;19.646;2024-03-22T01:42:59;61.20;;;27.60;;
70337;SDS011;57757;53.198;19.646;2024-03-22T01:45:27;55.80;;;25.10;;
70337;SDS011;57757;53.198;19.646;2024-03-22T01:47:59;66.60;;;26.60;;
70337;SDS011;57757;53.198;19.646;2024-03-22T01:50:27;59.10;;;25.40;;
70337;SDS011;57757;53.198;19.646;2024-03-22T01:52:54;62.80;;;26.40;;
70337;SDS011;57757;53.198;19.646;2024-03-22T01:55:23;61.20;;;25.10;;
70337;SDS011;57757;53.198;19.646;2024-03-22T01:57:51;59.60;;;25.30;;
70337;SDS011;57757;53.198;19.646;2024-03-22T02:00:20;61.20;;;25.70;;
70337;SDS011;57757;53.198;19.646;2024-03-22T02:02:47;60.80;;;24.60;;
70337;SDS011;57757;53.198;19.646;2024-03-22T02:05:15;64.40;;;25.30;;
70337;SDS011;57757;53.198;19.646;2024-03-22T02:07:46;60.90;;;25.20;;
70337;SDS011;57757;53.198;19.646;2024-03-22T02:10:13;61.40;;;25.40;;
70337;SDS011;57757;53.198;19.646;2024-03-22T02:12:41;63.20;;;25.70;;
70337;SDS011;57757;53.198;19.646;2024-03-22T02:15:08;60.70;;;25.60;;
70337;SDS011;57757;53.198;19.646;2024-03-22T02:17:36;58.80;;;24.30;;
70337;SDS011;57757;53.198;19.646;2024-03-22T02:20:04;55.00;;;23.10;;
70337;SDS011;57757;53.198;19.646;2024-03-22T02:22:31;54.70;;;23.90;;
70337;SDS011;57757;53.198;19.646;2024-03-22T02:24:59;56.70;;;24.80;;
70337;SDS011;57757;53.198;19.646;2024-03-22T02:27:26;58.10;;;23.40;;
70337;SDS011;57757;53.198;19.646;2024-03-22T02:29:53;56.90;;;24.10;;
70337;SDS011;57757;53.198;19.646;2024-03-22T02:32:21;55.70;;;25.10;;
70337;SDS011;57757;53.198;19.646;2024-03-22T02:34:48;55.40;;;21.90;;
70337;SDS011;57757;53.198;19.646;2024-03-22T02:37:28;60.20;;;25.10;;
70337;SDS011;57757;53.198;19.646;2024-03-22T02:39:55;59.60;;;24.80;;
70337;SDS011;57757;53.198;19.646;2024-03-22T02:42:22;52.90;;;23.20;;
70337;SDS011;57757;53.198;19.646;2024-03-22T02:44:49;52.20;;;23.10;;
70337;SDS011;57757;53.198;19.646;2024-03-22T02:47:16;59.40;;;23.10;;
70337;SDS011;57757;53.198;19.646;2024-03-22T02:49:44;66.60;;;26.00;;
70337;SDS011;57757;53.198;19.646;2024-03-22T02:52:11;61.60;;;24.60;;
70337;SDS011;57757;53.198;19.646;2024-03-22T02:54:38;59.40;;;23.90;;
70337;SDS011;57757;53.198;19.646;2024-03-22T02:57:05;60.40;;;25.80;;
70337;SDS011;57757;53.198;19.646;2024-03-22T02:59:33;62.00;;;25.00;;
70337;SDS011;57757;53.198;19.646;2024-03-22T03:02:00;55.80;;;22.80;;
70337;SDS011;57757;53.198;19.646;2024-03-22T03:04:27;61.40;;;24.80;;
70337;SDS011;57757;53.198;19.646;2024-03-22T03:06:54;59.40;;;23.50;;
70337;SDS011;57757;53.198;19.646;2024-03-22T03:09:22;61.60;;;24.50;;
70337;SDS011;57757;53.198;19.646;2024-03-22T03:11:50;63.50;;;24.30;;
70337;SDS011;57757;53.198;19.646;2024-03-22T03:14:17;64.20;;;25.60;;
70337;SDS011;57757;53.198;19.646;2024-03-22T03:16:44;62.40;;;24.70;;
70337;SDS011;57757;53.198;19.646;2024-03-22T03:19:11;63.70;;;25.00;;
70337;SDS011;57757;53.198;19.646;2024-03-22T03:21:38;62.60;;;24.50;;
70337;SDS011;57757;53.198;19.646;2024-03-22T03:24:06;67.70;;;26.80;;
70337;SDS011;57757;53.198;19.646;2024-03-22T03:26:33;71.30;;;25.40;;
70337;SDS011;57757;53.198;19.646;2024-03-22T03:29:00;72.30;;;27.20;;
70337;SDS011;57757;53.198;19.646;2024-03-22T03:31:28;74.90;;;27.20;;
70337;SDS011;57757;53.198;19.646;2024-03-22T03:33:55;70.70;;;28.50;;
70337;SDS011;57757;53.198;19.646;2024-03-22T03:36:22;68.20;;;26.20;;
70337;SDS011;57757;53.198;19.646;2024-03-22T03:38:49;76.50;;;29.40;;
70337;SDS011;57757;53.198;19.646;2024-03-22T03:41:16;78.50;;;28.10;;
70337;SDS011;57757;53.198;19.646;2024-03-22T03:43:44;78.00;;;26.80;;
70337;SDS011;57757;53.198;19.646;2024-03-22T03:46:11;83.20;;;27.90;;
70337;SDS011;57757;53.198;19.646;2024-03-22T03:48:38;77.40;;;27.10;;
70337;SDS011;57757;53.198;19.646;2024-03-22T03:51:05;74.60;;;25.60;;
70337;SDS011;57757;53.198;19.646;2024-03-22T03:53:32;74.60;;;26.90;;
70337;SDS011;57757;53.198;19.646;2024-03-22T03:56:00;76.60;;;26.20;;
70337;SDS011;57757;53.198;19.646;2024-03-22T03:58:27;67.50;;;24.10;;
70337;SDS011;57757;53.198;19.646;2024-03-22T04:00:54;83.30;;;27.10;;
70337;SDS011;57757;53.198;19.646;2024-03-22T04:03:22;75.70;;;25.40;;
70337;SDS011;57757;53.198;19.646;2024-03-22T04:05:57;77.50;;;27.50;;
70337;SDS011;57757;53.198;19.646;2024-03-22T04:08:25;81.80;;;30.50;;
70337;SDS011;57757;53.198;19.646;2024-03-22T04:10:53;71.70;;;26.30;;
70337;SDS011;57757;53.198;19.646;2024-03-22T04:13:26;81.80;;;29.30;;
70337;SDS011;57757;53.198;19.646;2024-03-22T04:15:54;79.90;;;28.00;;
70337;SDS011;57757;53.198;19.646;2024-03-22T04:18:26;90.00;;;29.00;;
70337;SDS011;57757;53.198;19.646;2024-03-22T04:20:57;86.60;;;28.30;;
70337;SDS011;57757;53.198;19.646;2024-03-22T04:23:26;84.20;;;28.60;;
70337;SDS011;57757;53.198;19.646;2024-03-22T04:25:59;82.20;;;26.20;;
70337;SDS011;57757;53.198;19.646;2024-03-22T04:28:28;81.30;;;28.60;;
70337;SDS011;57757;53.198;19.646;2024-03-22T04:30:59;88.70;;;29.60;;
70337;SDS011;57757;53.198;19.646;2024-03-22T04:33:28;83.10;;;27.20;;
70337;SDS011;57757;53.198;19.646;2024-03-22T04:35:56;80.80;;;26.70;;
70337;SDS011;57757;53.198;19.646;2024-03-22T04:38:28;81.30;;;28.60;;
70337;SDS011;57757;53.198;19.646;2024-03-22T04:40:56;83.60;;;28.90;;
70337;SDS011;57757;53.198;19.646;2024-03-22T04:43:24;72.40;;;25.70;;
70337;SDS011;57757;53.198;19.646;2024-03-22T04:45:52;87.60;;;30.20;;
70337;SDS011;57757;53.198;19.646;2024-03-22T04:48:20;90.20;;;31.10;;
70337;SDS011;57757;53.198;19.646;2024-03-22T04:50:52;85.10;;;28.60;;
70337;SDS011;57757;53.198;19.646;2024-03-22T04:53:20;95.30;;;35.90;;
70337;SDS011;57757;53.198;19.646;2024-03-22T04:55:50;88.30;;;30.90;;
70337;SDS011;57757;53.198;19.646;2024-03-22T04:58:18;97.30;;;35.30;;
70337;SDS011;57757;53.198;19.646;2024-03-22T05:00:47;94.20;;;31.20;;
70337;SDS011;57757;53.198;19.646;2024-03-22T05:03:15;89.70;;;29.20;;
70337;SDS011;57757;53.198;19.646;2024-03-22T05:05:43;85.80;;;31.30;;
70337;SDS011;57757;53.198;19.646;2024-03-22T05:08:10;94.00;;;32.90;;
70337;SDS011;57757;53.198;19.646;2024-03-22T05:10:38;83.40;;;31.80;;
70337;SDS011;57757;53.198;19.646;2024-03-22T05:13:05;91.00;;;31.10;;
70337;SDS011;57757;53.198;19.646;2024-03-22T05:15:32;67.70;;;23.90;;
70337;SDS011;57757;53.198;19.646;2024-03-22T05:17:59;72.30;;;26.50;;
70337;SDS011;57757;53.198;19.646;2024-03-22T05:20:27;70.40;;;24.80;;
70337;SDS011;57757;53.198;19.646;2024-03-22T05:22:54;77.00;;;28.20;;
70337;SDS011;57757;53.198;19.646;2024-03-22T05:25:22;70.70;;;26.30;;
70337;SDS011;57757;53.198;19.646;2024-03-22T05:27:49;67.70;;;26.80;;
70337;SDS011;57757;53.198;19.646;2024-03-22T05:30:16;70.00;;;26.20;;
70337;SDS011;57757;53.198;19.646;2024-03-22T05:32:43;67.10;;;25.80;;
70337;SDS011;57757;53.198;19.646;2024-03-22T05:35:10;72.80;;;27.00;;
70337;SDS011;57757;53.198;19.646;2024-03-22T05:37:38;74.50;;;28.30;;
70337;SDS011;57757;53.198;19.646;2024-03-22T05:40:05;66.30;;;25.50;;
70337;SDS011;57757;53.198;19.646;2024-03-22T05:42:33;66.40;;;25.20;;
70337;SDS011;57757;53.198;19.646;2024-03-22T05:45:01;97.00;;;37.80;;
70337;SDS011;57757;53.198;19.646;2024-03-22T05:47:28;67.10;;;26.80;;
70337;SDS011;57757;53.198;19.646;2024-03-22T05:50:05;58.10;;;23.80;;
70337;SDS011;57757;53.198;19.646;2024-03-22T05:52:35;68.20;;;29.50;;
70337;SDS011;57757;53.198;19.646;2024-03-22T05:55:02;75.80;;;31.20;;
70337;SDS011;57757;53.198;19.646;2024-03-22T05:57:30;67.60;;;26.50;;
70337;SDS011;57757;53.198;19.646;2024-03-22T05:59:57;68.80;;;27.50;;
70337;SDS011;57757;53.198;19.646;2024-03-22T06:02:24;104.50;;;38.80;;
70337;SDS011;57757;53.198;19.646;2024-03-22T06:04:51;74.70;;;29.20;;
70337;SDS011;57757;53.198;19.646;2024-03-22T06:07:19;69.80;;;26.90;;
70337;SDS011;57757;53.198;19.646;2024-03-22T06:09:46;70.10;;;25.10;;
70337;SDS011;57757;53.198;19.646;2024-03-22T06:12:13;75.10;;;27.80;;
70337;SDS011;57757;53.198;19.646;2024-03-22T06:14:41;73.90;;;27.80;;
70337;SDS011;57757;53.198;19.646;2024-03-22T06:17:10;84.70;;;30.50;;
70337;SDS011;57757;53.198;19.646;2024-03-22T06:19:38;73.30;;;28.20;;
70337;SDS011;57757;53.198;19.646;2024-03-22T06:22:05;73.10;;;28.90;;
70337;SDS011;57757;53.198;19.646;2024-03-22T06:24:36;91.10;;;33.30;;
70337;SDS011;57757;53.198;19.646;2024-03-22T06:27:03;75.60;;;26.60;;
70337;SDS011;57757;53.198;19.646;2024-03-22T06:29:31;71.50;;;25.90;;
70337;SDS011;57757;53.198;19.646;2024-03-22T06:31:58;70.10;;;27.90;;
70337;SDS011;57757;53.198;19.646;2024-03-22T06:34:25;64.00;;;23.00;;
70337;SDS011;57757;53.198;19.646;2024-03-22T06:36:53;70.60;;;28.50;;
70337;SDS011;57757;53.198;19.646;2024-03-22T06:39:20;67.00;;;26.10;;
70337;SDS011;57757;53.198;19.646;2024-03-22T06:41:47;58.80;;;28.40;;
70337;SDS011;57757;53.198;19.646;2024-03-22T06:44:15;84.10;;;31.60;;
70337;SDS011;57757;53.198;19.646;2024-03-22T06:46:42;68.60;;;26.40;;
70337;SDS011;57757;53.198;19.646;2024-03-22T06:49:09;55.70;;;21.60;;
70337;SDS011;57757;53.198;19.646;2024-03-22T06:51:37;70.50;;;33.60;;
70337;SDS011;57757;53.198;19.646;2024-03-22T06:54:04;64.40;;;36.40;;
70337;SDS011;57757;53.198;19.646;2024-03-22T06:56:32;53.90;;;28.00;;
70337;SDS011;57757;53.198;19.646;2024-03-22T06:59:00;54.00;;;23.10;;
70337;SDS011;57757;53.198;19.646;2024-03-22T07:01:27;48.20;;;24.00;;
70337;SDS011;57757;53.198;19.646;2024-03-22T07:03:54;42.50;;;19.50;;
70337;SDS011;57757;53.198;19.646;2024-03-22T07:06:21;40.50;;;16.50;;
70337;SDS011;57757;53.198;19.646;2024-03-22T07:08:48;49.20;;;21.20;;
70337;SDS011;57757;53.198;19.646;2024-03-22T07:11:24;48.50;;;21.20;;
70337;SDS011;57757;53.198;19.646;2024-03-22T07:14:33;49.90;;;22.60;;
70337;SDS011;57757;53.198;19.646;2024-03-22T07:20:56;41.10;;;15.90;;
70337;SDS011;57757;53.198;19.646;2024-03-22T07:23:55;47.40;;;18.70;;
70337;SDS011;57757;53.198;19.646;2024-03-22T07:26:22;51.10;;;20.00;;
70337;SDS011;57757;53.198;19.646;2024-03-22T07:28:57;44.30;;;18.50;;
70337;SDS011;57757;53.198;19.646;2024-03-22T07:31:24;58.80;;;25.70;;
70337;SDS011;57757;53.198;19.646;2024-03-22T07:33:53;43.80;;;18.70;;
70337;SDS011;57757;53.198;19.646;2024-03-22T07:36:20;49.30;;;19.80;;
70337;SDS011;57757;53.198;19.646;2024-03-22T07:38:47;45.70;;;19.30;;
70337;SDS011;57757;53.198;19.646;2024-03-22T07:41:16;46.80;;;19.10;;
70337;SDS011;57757;53.198;19.646;2024-03-22T07:43:43;50.40;;;19.40;;
70337;SDS011;57757;53.198;19.646;2024-03-22T07:46:11;47.50;;;19.20;;
70337;SDS011;57757;53.198;19.646;2024-03-22T07:48:38;54.10;;;20.10;;
70337;SDS011;57757;53.198;19.646;2024-03-22T07:51:06;54.20;;;20.00;;
70337;SDS011;57757;53.198;19.646;2024-03-22T07:53:36;45.20;;;17.50;;
70337;SDS011;57757;53.198;19.646;2024-03-22T07:56:03;49.60;;;19.30;;
70337;SDS011;57757;53.198;19.646;2024-03-22T07:58:31;50.20;;;19.50;;
70337;SDS011;57757;53.198;19.646;2024-03-22T08:00:59;56.70;;;21.40;;
70337;SDS011;57757;53.198;19.646;2024-03-22T08:03:27;58.50;;;24.50;;
70337;SDS011;57757;53.198;19.646;2024-03-22T08:05:54;53.80;;;21.70;;
70337;SDS011;57757;53.198;19.646;2024-03-22T08:08:24;55.80;;;21.50;;
70337;SDS011;57757;53.198;19.646;2024-03-22T08:10:51;65.80;;;25.20;;
70337;SDS011;57757;53.198;19.646;2024-03-22T08:13:18;58.20;;;21.90;;
70337;SDS011;57757;53.198;19.646;2024-03-22T08:15:45;56.10;;;21.30;;
70337;SDS011;57757;53.198;19.646;2024-03-22T08:18:13;62.50;;;24.90;;
70337;SDS011;57757;53.198;19.646;2024-03-22T08:20:40;54.00;;;21.70;;
70337;SDS011;57757;53.198;19.646;2024-03-22T08:23:09;62.00;;;23.20;;
70337;SDS011;57757;53.198;19.646;2024-03-22T08:25:36;64.50;;;24.20;;
70337;SDS011;57757;53.198;19.646;2024-03-22T08:28:04;67.30;;;25.90;;
70337;SDS011;57757;53.198;19.646;2024-03-22T08:30:40;58.50;;;21.50;;
70337;SDS011;57757;53.198;19.646;2024-03-22T08:33:07;65.80;;;24.50;;
70337;SDS011;57757;53.198;19.646;2024-03-22T08:35:37;70.30;;;24.10;;
70337;SDS011;57757;53.198;19.646;2024-03-22T08:38:04;71.40;;;24.60;;
70337;SDS011;57757;53.198;19.646;2024-03-22T08:40:37;64.20;;;24.00;;
70337;SDS011;57757;53.198;19.646;2024-03-22T08:43:05;69.40;;;23.90;;
70337;SDS011;57757;53.198;19.646;2024-03-22T08:45:34;60.30;;;23.20;;
70337;SDS011;57757;53.198;19.646;2024-03-22T08:48:03;60.00;;;22.40;;
70337;SDS011;57757;53.198;19.646;2024-03-22T08:50:31;63.80;;;21.20;;
70337;SDS011;57757;53.198;19.646;2024-03-22T08:52:59;66.70;;;23.90;;
70337;SDS011;57757;53.198;19.646;2024-03-22T08:55:30;62.70;;;26.10;;
70337;SDS011;57757;53.198;19.646;2024-03-22T08:57:58;66.10;;;27.10;;
70337;SDS011;57757;53.198;19.646;2024-03-22T09:00:32;57.90;;;21.10;;
70337;SDS011;57757;53.198;19.646;2024-03-22T09:02:59;51.20;;;19.30;;
70337;SDS011;57757;53.198;19.646;2024-03-22T09:05:26;54.10;;;20.50;;
70337;SDS011;57757;53.198;19.646;2024-03-22T09:07:54;56.20;;;19.50;;
70337;SDS011;57757;53.198;19.646;2024-03-22T09:10:24;57.00;;;21.70;;
70337;SDS011;57757;53.198;19.646;2024-03-22T09:12:51;45.50;;;17.70;;
70337;SDS011;57757;53.198;19.646;2024-03-22T09:15:18;45.00;;;18.00;;
70337;SDS011;57757;53.198;19.646;2024-03-22T09:17:45;57.20;;;20.70;;
70337;SDS011;57757;53.198;19.646;2024-03-22T09:20:13;51.20;;;18.50;;
70337;SDS011;57757;53.198;19.646;2024-03-22T09:22:40;55.90;;;24.60;;
70337;SDS011;57757;53.198;19.646;2024-03-22T09:25:08;56.20;;;21.00;;
70337;SDS011;57757;53.198;19.646;2024-03-22T09:27:35;44.70;;;17.80;;
70337;SDS011;57757;53.198;19.646;2024-03-22T09:30:03;42.00;;;17.30;;
70337;SDS011;57757;53.198;19.646;2024-03-22T09:32:31;42.90;;;17.90;;
70337;SDS011;57757;53.198;19.646;2024-03-22T09:34:58;48.40;;;17.70;;
70337;SDS011;57757;53.198;19.646;2024-03-22T09:37:26;42.00;;;17.80;;
70337;SDS011;57757;53.198;19.646;2024-03-22T09:39:53;45.10;;;17.20;;
70337;SDS011;57757;53.198;19.646;2024-03-22T09:42:21;50.10;;;17.60;;
70337;SDS011;57757;53.198;19.646;2024-03-22T09:44:50;42.30;;;17.00;;
70337;SDS011;57757;53.198;19.646;2024-03-22T09:47:27;45.60;;;18.80;;
70337;SDS011;57757;53.198;19.646;2024-03-22T09:50:05;68.30;;;23.40;;
70337;SDS011;57757;53.198;19.646;2024-03-22T09:52:34;62.20;;;23.80;;
70337;SDS011;57757;53.198;19.646;2024-03-22T09:55:07;50.40;;;19.80;;
70337;SDS011;57757;53.198;19.646;2024-03-22T09:57:37;47.80;;;17.90;;
70337;SDS011;57757;53.198;19.646;2024-03-22T10:00:06;44.60;;;15.90;;
70337;SDS011;57757;53.198;19.646;2024-03-22T10:02:35;45.80;;;17.50;;
70337;SDS011;57757;53.198;19.646;2024-03-22T10:05:03;38.20;;;16.30;;
70337;SDS011;57757;53.198;19.646;2024-03-22T10:07:31;54.30;;;20.40;;
70337;SDS011;57757;53.198;19.646;2024-03-22T10:09:59;42.10;;;17.30;;
70337;SDS011;57757;53.198;19.646;2024-03-22T10:12:27;45.90;;;20.20;;
70337;SDS011;57757;53.198;19.646;2024-03-22T10:14:54;45.60;;;18.60;;
70337;SDS011;57757;53.198;19.646;2024-03-22T10:17:21;43.10;;;18.20;;
70337;SDS011;57757;53.198;19.646;2024-03-22T10:19:49;43.00;;;19.30;;
70337;SDS011;57757;53.198;19.646;2024-03-22T10:22:18;40.60;;;16.70;;
70337;SDS011;57757;53.198;19.646;2024-03-22T10:24:46;42.10;;;18.80;;
70337;SDS011;57757;53.198;19.646;2024-03-22T10:27:13;64.70;;;26.40;;
70337;SDS011;57757;53.198;19.646;2024-03-22T10:29:41;67.90;;;28.40;;
70337;SDS011;57757;53.198;19.646;2024-03-22T10:32:11;87.20;;;39.50;;
70337;SDS011;57757;53.198;19.646;2024-03-22T10:34:39;48.90;;;21.90;;
70337;SDS011;57757;53.198;19.646;2024-03-22T10:37:08;41.60;;;19.20;;
70337;SDS011;57757;53.198;19.646;2024-03-22T10:39:37;42.20;;;19.10;;
70337;SDS011;57757;53.198;19.646;2024-03-22T10:42:07;33.10;;;15.80;;
70337;SDS011;57757;53.198;19.646;2024-03-22T10:44:34;30.20;;;14.50;;
70337;SDS011;57757;53.198;19.646;2024-03-22T10:47:02;31.50;;;15.70;;
70337;SDS011;57757;53.198;19.646;2024-03-22T10:49:34;38.80;;;20.60;;
70337;SDS011;57757;53.198;19.646;2024-03-22T10:52:04;31.50;;;15.50;;
70337;SDS011;57757;53.198;19.646;2024-03-22T10:54:40;35.80;;;15.40;;
70337;SDS011;57757;53.198;19.646;2024-03-22T10:57:13;55.40;;;23.60;;
70337;SDS011;57757;53.198;19.646;2024-03-22T10:59:46;29.00;;;15.00;;
70337;SDS011;57757;53.198;19.646;2024-03-22T11:02:14;24.50;;;11.80;;
70337;SDS011;57757;53.198;19.646;2024-03-22T11:04:53;26.50;;;12.80;;
70337;SDS011;57757;53.198;19.646;2024-03-22T11:07:21;24.00;;;10.90;;
70337;SDS011;57757;53.198;19.646;2024-03-22T11:09:52;26.90;;;12.40;;
70337;SDS011;57757;53.198;19.646;2024-03-22T11:12:21;25.00;;;11.00;;
70337;SDS011;57757;53.198;19.646;2024-03-22T11:14:55;25.70;;;10.80;;
70337;SDS011;57757;53.198;19.646;2024-03-22T11:17:22;27.40;;;11.70;;
70337;SDS011;57757;53.198;19.646;2024-03-22T11:19:52;26.80;;;11.00;;
70337;SDS011;57757;53.198;19.646;2024-03-22T11:22:19;20.80;;;9.90;;
70337;SDS011;57757;53.198;19.646;2024-03-22T11:24:47;26.60;;;12.50;;
70337;SDS011;57757;53.198;19.646;2024-03-22T11:27:15;28.50;;;13.90;;
70337;SDS011;57757;53.198;19.646;2024-03-22T11:29:42;33.10;;;17.60;;
70337;SDS011;57757;53.198;19.646;2024-03-22T11:32:11;34.40;;;17.50;;
70337;SDS011;57757;53.198;19.646;2024-03-22T11:34:39;32.20;;;14.20;;
70337;SDS011;57757;53.198;19.646;2024-03-22T11:37:13;30.00;;;14.40;;
70337;SDS011;57757;53.198;19.646;2024-03-22T11:39:41;31.00;;;13.80;;
70337;SDS011;57757;53.198;19.646;2024-03-22T11:42:09;31.00;;;13.80;;
70337;SDS011;57757;53.198;19.646;2024-03-22T11:44:37;33.90;;;14.90;;
70337;SDS011;57757;53.198;19.646;2024-03-22T11:47:06;37.20;;;14.00;;
70337;SDS011;57757;53.198;19.646;2024-03-22T11:49:34;26.50;;;11.30;;
70337;SDS011;57757;53.198;19.646;2024-03-22T11:52:02;27.60;;;12.20;;
70337;SDS011;57757;53.198;19.646;2024-03-22T11:54:29;29.80;;;13.20;;
70337;SDS011;57757;53.198;19.646;2024-03-22T11:56:57;31.30;;;13.20;;
70337;SDS011;57757;53.198;19.646;2024-03-22T11:59:25;41.90;;;17.50;;
70337;SDS011;57757;53.198;19.646;2024-03-22T12:01:52;63.70;;;27.60;;
70337;SDS011;57757;53.198;19.646;2024-03-22T12:04:19;65.80;;;27.70;;
70337;SDS011;57757;53.198;19.646;2024-03-22T12:06:46;44.90;;;20.10;;
70337;SDS011;57757;53.198;19.646;2024-03-22T12:09:14;48.40;;;21.30;;
70337;SDS011;57757;53.198;19.646;2024-03-22T12:11:41;34.20;;;14.50;;
70337;SDS011;57757;53.198;19.646;2024-03-22T12:14:08;39.60;;;16.90;;
70337;SDS011;57757;53.198;19.646;2024-03-22T12:16:36;32.60;;;14.80;;
70337;SDS011;57757;53.198;19.646;2024-03-22T12:19:03;29.10;;;13.10;;
70337;SDS011;57757;53.198;19.646;2024-03-22T12:21:30;28.70;;;13.20;;
70337;SDS011;57757;53.198;19.646;2024-03-22T12:23:59;35.90;;;15.60;;
70337;SDS011;57757;53.198;19.646;2024-03-22T12:26:26;31.70;;;13.80;;
70337;SDS011;57757;53.198;19.646;2024-03-22T12:28:53;31.00;;;13.70;;
70337;SDS011;57757;53.198;19.646;2024-03-22T12:31:20;34.30;;;13.10;;
70337;SDS011;57757;53.198;19.646;2024-03-22T12:33:48;50.30;;;19.90;;
70337;SDS011;57757;53.198;19.646;2024-03-22T12:36:15;37.20;;;16.40;;
70337;SDS011;57757;53.198;19.646;2024-03-22T12:38:42;38.90;;;16.70;;
70337;SDS011;57757;53.198;19.646;2024-03-22T12:41:13;43.90;;;19.40;;
70337;SDS011;57757;53.198;19.646;2024-03-22T12:43:40;35.00;;;15.90;;
70337;SDS011;57757;53.198;19.646;2024-03-22T12:46:25;37.60;;;16.00;;
70337;SDS011;57757;53.198;19.646;2024-03-22T12:48:53;37.70;;;16.60;;
70337;SDS011;57757;53.198;19.646;2024-03-22T12:51:21;38.30;;;17.80;;
70337;SDS011;57757;53.198;19.646;2024-03-22T12:53:48;37.60;;;16.30;;
70337;SDS011;57757;53.198;19.646;2024-03-22T12:56:15;35.10;;;16.10;;
70337;SDS011;57757;53.198;19.646;2024-03-22T12:58:42;35.60;;;16.90;;
70337;SDS011;57757;53.198;19.646;2024-03-22T13:01:10;32.30;;;15.50;;
70337;SDS011;57757;53.198;19.646;2024-03-22T13:03:37;38.10;;;18.70;;
70337;SDS011;57757;53.198;19.646;2024-03-22T13:06:05;40.70;;;18.50;;
70337;SDS011;57757;53.198;19.646;2024-03-22T13:08:32;35.70;;;17.00;;
70337;SDS011;57757;53.198;19.646;2024-03-22T13:10:59;38.90;;;17.80;;
70337;SDS011;57757;53.198;19.646;2024-03-22T13:13:27;45.10;;;20.50;;
70337;SDS011;57757;53.198;19.646;2024-03-22T13:15:56;39.60;;;18.50;;
70337;SDS011;57757;53.198;19.646;2024-03-22T13:18:23;57.70;;;25.50;;
70337;SDS011;57757;53.198;19.646;2024-03-22T13:20:51;50.60;;;23.40;;
70337;SDS011;57757;53.198;19.646;2024-03-22T13:23:18;49.00;;;21.20;;
70337;SDS011;57757;53.198;19.646;2024-03-22T13:25:45;44.70;;;21.30;;
70337;SDS011;57757;53.198;19.646;2024-03-22T13:28:12;61.20;;;25.20;;
70337;SDS011;57757;53.198;19.646;2024-03-22T13:30:40;59.00;;;26.30;;
70337;SDS011;57757;53.198;19.646;2024-03-22T13:33:07;50.60;;;24.00;;
70337;SDS011;57757;53.198;19.646;2024-03-22T13:35:35;67.30;;;28.40;;
70337;SDS011;57757;53.198;19.646;2024-03-22T13:38:02;64.20;;;28.40;;
70337;SDS011;57757;53.198;19.646;2024-03-22T13:40:29;56.40;;;27.20;;
70337;SDS011;57757;53.198;19.646;2024-03-22T13:42:56;48.00;;;22.40;;
70337;SDS011;57757;53.198;19.646;2024-03-22T13:45:25;62.50;;;28.20;;
70337;SDS011;57757;53.198;19.646;2024-03-22T13:47:52;48.60;;;22.60;;
70337;SDS011;57757;53.198;19.646;2024-03-22T13:50:19;53.60;;;24.10;;
70337;SDS011;57757;53.198;19.646;2024-03-22T13:52:47;51.70;;;24.10;;
70337;SDS011;57757;53.198;19.646;2024-03-22T13:55:15;113.20;;;42.80;;
70337;SDS011;57757;53.198;19.646;2024-03-22T13:57:42;91.00;;;35.60;;
70337;SDS011;57757;53.198;19.646;2024-03-22T14:00:09;94.60;;;38.90;;
70337;SDS011;57757;53.198;19.646;2024-03-22T14:02:41;63.90;;;27.70;;
70337;SDS011;57757;53.198;19.646;2024-03-22T14:05:08;71.60;;;32.80;;
70337;SDS011;57757;53.198;19.646;2024-03-22T14:07:36;56.50;;;29.40;;
70337;SDS011;57757;53.198;19.646;2024-03-22T14:10:07;51.80;;;26.40;;
70337;SDS011;57757;53.198;19.646;2024-03-22T14:12:35;47.10;;;21.90;;
70337;SDS011;57757;53.198;19.646;2024-03-22T14:15:03;53.90;;;24.40;;
70337;SDS011;57757;53.198;19.646;2024-03-22T14:17:31;59.80;;;27.20;;
70337;SDS011;57757;53.198;19.646;2024-03-22T14:19:58;70.90;;;29.20;;